createdAt,value
2022-10-19T00:02:14.869Z,6.89
2022-10-19T00:04:47.368Z,6.85
2022-10-19T00:07:19.880Z,6.83
2022-10-19T00:09:52.574Z,6.79
2022-10-19T00:12:25.408Z,6.75
2022-10-19T00:14:58.185Z,6.73
2022-10-19T00:17:31.122Z,6.69
2022-10-19T00:20:04.578Z,6.68
2022-10-19T00:22:37.096Z,6.64
2022-10-19T00:25:09.714Z,6.63
2022-10-19T00:27:42.297Z,6.63
2022-10-19T00:30:14.851Z,6.59
2022-10-19T00:32:47.426Z,6.55
2022-10-19T00:35:20.061Z,6.59
2022-10-19T00:37:52.600Z,6.62
2022-10-19T00:40:25.117Z,6.58
2022-10-19T00:42:57.966Z,6.60
2022-10-19T00:45:30.761Z,6.59
2022-10-19T00:48:03.411Z,6.57
2022-10-19T00:50:37.147Z,6.53
2022-10-19T00:53:10.418Z,6.50
2022-10-19T00:55:44.144Z,6.48
2022-10-19T00:58:16.756Z,6.45
2022-10-19T01:00:49.379Z,6.48
2022-10-19T01:03:21.997Z,6.56
2022-10-19T01:05:55.597Z,6.64
2022-10-19T01:08:28.799Z,6.70
2022-10-19T01:11:43.289Z,6.71
2022-10-19T01:14:37.527Z,6.69
2022-10-19T01:18:03.517Z,6.67
2022-10-19T01:21:11.088Z,6.64
2022-10-19T01:24:23.474Z,6.67
2022-10-19T01:27:11.161Z,6.66
2022-10-19T01:30:10.973Z,6.64
2022-10-19T01:32:56.656Z,6.64
2022-10-19T01:35:44.939Z,6.60
2022-10-19T01:38:34.755Z,6.58
2022-10-19T01:41:20.164Z,6.56
2022-10-19T01:44:11.613Z,6.52
2022-10-19T01:46:50.452Z,6.48
2022-10-19T01:49:35.219Z,6.41
2022-10-19T01:52:14.480Z,6.37
2022-10-19T01:54:53.765Z,6.32
2022-10-19T01:57:45.854Z,6.29
2022-10-19T02:00:22.806Z,6.27
2022-10-19T02:02:56.312Z,6.24
2022-10-19T02:05:33.588Z,6.22
2022-10-19T02:08:15.502Z,6.19
2022-10-19T02:10:49.662Z,6.20
2022-10-19T02:13:24.840Z,6.19
2022-10-19T02:16:03.498Z,6.17
2022-10-19T02:18:45.878Z,6.17
2022-10-19T02:21:19.633Z,6.13
2022-10-19T02:23:54.170Z,6.12
2022-10-19T02:26:27.467Z,6.10
2022-10-19T02:29:00.383Z,6.04
2022-10-19T02:31:33.012Z,5.95
2022-10-19T02:34:06.850Z,5.91
2022-10-19T02:36:39.427Z,5.92
2022-10-19T02:39:12.067Z,5.92
2022-10-19T02:41:54.255Z,5.87
2022-10-19T02:44:36.900Z,5.88
2022-10-19T02:47:22.464Z,5.85
2022-10-19T02:49:55.195Z,5.87
2022-10-19T02:52:27.710Z,5.85
2022-10-19T02:55:00.328Z,5.83
2022-10-19T02:57:33.353Z,5.79
2022-10-19T03:00:08.368Z,5.76
2022-10-19T03:02:41.138Z,5.74
2022-10-19T03:05:13.687Z,5.70
2022-10-19T03:07:46.899Z,5.70
2022-10-19T03:10:19.590Z,5.67
2022-10-19T03:12:52.185Z,5.66
2022-10-19T03:15:28.922Z,5.64
2022-10-19T03:18:01.470Z,5.63
2022-10-19T03:20:34.014Z,5.56
2022-10-19T03:23:06.729Z,5.52
2022-10-19T03:25:39.305Z,5.50
2022-10-19T03:28:11.813Z,5.47
2022-10-19T03:30:44.365Z,5.44
2022-10-19T03:33:16.875Z,5.39
2022-10-19T03:35:49.464Z,5.35
2022-10-19T03:38:22.051Z,5.32
2022-10-19T03:40:54.623Z,5.31
2022-10-19T03:43:27.135Z,5.29
2022-10-19T03:45:59.655Z,5.28
2022-10-19T03:48:33.719Z,5.23
2022-10-19T03:51:11.708Z,5.22
2022-10-19T03:53:45.334Z,5.22
2022-10-19T03:56:22.382Z,5.22
2022-10-19T03:58:57.394Z,5.17
2022-10-19T04:01:36.838Z,5.15
2022-10-19T04:04:16.904Z,5.08
2022-10-19T04:06:51.018Z,5.06
2022-10-19T04:09:23.945Z,5.03
2022-10-19T04:11:56.463Z,5.04
2022-10-19T04:14:33.166Z,5.06
2022-10-19T04:17:06.046Z,5.04
2022-10-19T04:19:38.578Z,5.07
2022-10-19T04:22:11.061Z,5.07
2022-10-19T04:24:43.565Z,5.05
2022-10-19T04:27:16.124Z,5.03
2022-10-19T04:29:48.686Z,5.02
2022-10-19T04:32:21.209Z,5.04
2022-10-19T04:34:53.810Z,5.10
2022-10-19T04:37:26.330Z,5.13
2022-10-19T04:39:58.862Z,5.17
2022-10-19T04:42:31.825Z,5.19
2022-10-19T04:45:05.176Z,5.19
2022-10-19T04:47:37.726Z,5.24
2022-10-19T04:50:10.282Z,5.29
2022-10-19T04:52:45.699Z,5.31
2022-10-19T04:55:18.690Z,5.31
2022-10-19T04:57:51.516Z,5.34
2022-10-19T05:00:24.080Z,5.34
2022-10-19T05:02:56.626Z,5.36
2022-10-19T05:05:29.222Z,5.33
2022-10-19T05:08:02.495Z,5.31
2022-10-19T05:10:36.333Z,5.32
2022-10-19T05:13:08.857Z,5.31
2022-10-19T05:15:41.458Z,5.30
2022-10-19T05:18:13.984Z,5.29
2022-10-19T05:20:46.590Z,5.22
2022-10-19T05:23:19.187Z,5.16
2022-10-19T05:26:10.530Z,5.10
2022-10-19T05:28:47.786Z,5.09
2022-10-19T05:31:20.776Z,5.06
2022-10-19T05:33:53.698Z,5.04
2022-10-19T05:36:32.191Z,5.01
2022-10-19T05:39:17.830Z,4.99
2022-10-19T05:41:50.412Z,5.00
2022-10-19T05:44:24.357Z,5.00
2022-10-19T05:46:57.069Z,5.04
2022-10-19T05:49:29.859Z,5.02
2022-10-19T05:52:02.462Z,5.01
2022-10-19T05:54:36.328Z,4.99
2022-10-19T05:57:08.894Z,4.95
2022-10-19T05:59:41.470Z,4.93
2022-10-19T06:02:14.235Z,4.94
2022-10-19T06:04:46.912Z,4.95
2022-10-19T06:07:19.444Z,4.93
2022-10-19T06:09:52.094Z,4.94
2022-10-19T06:12:25.204Z,4.93
2022-10-19T06:14:57.770Z,5.01
2022-10-19T06:17:30.278Z,5.05
2022-10-19T06:20:03.018Z,5.05
2022-10-19T06:22:35.544Z,5.01
2022-10-19T06:25:08.594Z,5.01
2022-10-19T06:27:41.113Z,4.98
2022-10-19T06:30:13.802Z,4.99
2022-10-19T06:32:46.385Z,5.02
2022-10-19T06:35:19.064Z,5.02
2022-10-19T06:37:51.546Z,5.04
2022-10-19T06:40:25.692Z,5.09
2022-10-19T06:42:58.813Z,5.15
2022-10-19T06:45:35.722Z,5.18
2022-10-19T06:48:08.699Z,5.25
2022-10-19T06:50:41.294Z,5.36
2022-10-19T06:53:14.299Z,5.47
2022-10-19T06:55:46.801Z,5.58
2022-10-19T06:58:19.297Z,5.65
2022-10-19T07:01:11.800Z,5.79
2022-10-19T07:03:44.374Z,5.88
2022-10-19T07:06:16.888Z,5.92
2022-10-19T07:08:49.599Z,5.99
2022-10-19T07:11:22.621Z,6.11
2022-10-19T07:13:55.372Z,6.14
2022-10-19T07:16:27.858Z,6.20
2022-10-19T07:19:00.394Z,6.34
2022-10-19T07:21:32.932Z,6.41
2022-10-19T07:24:05.530Z,6.50
2022-10-19T07:26:38.160Z,6.56
2022-10-19T07:29:11.487Z,6.66
2022-10-19T07:31:44.021Z,6.73
2022-10-19T07:34:16.763Z,6.78
2022-10-19T07:36:49.337Z,6.85
2022-10-19T07:39:21.945Z,6.93
2022-10-19T07:41:54.437Z,7.00
2022-10-19T07:44:27.785Z,7.03
2022-10-19T07:47:00.354Z,7.10
2022-10-19T07:49:32.882Z,7.13
2022-10-19T07:52:05.435Z,7.20
2022-10-19T07:54:37.954Z,7.22
2022-10-19T07:57:12.257Z,7.35
2022-10-19T07:59:44.801Z,7.40
2022-10-19T08:02:18.319Z,7.46
2022-10-19T08:05:10.474Z,7.50
2022-10-19T08:07:44.200Z,7.61
2022-10-19T08:10:16.791Z,7.63
2022-10-19T08:12:49.333Z,7.75
2022-10-19T08:15:21.881Z,7.84
2022-10-19T08:17:54.436Z,7.91
2022-10-19T08:20:27.675Z,7.99
2022-10-19T08:23:02.039Z,8.13
2022-10-19T08:25:34.852Z,8.20
2022-10-19T08:28:07.354Z,8.27
2022-10-19T08:30:40.007Z,8.38
2022-10-19T08:33:14.541Z,8.44
2022-10-19T08:35:47.581Z,8.53
2022-10-19T08:41:59.780Z,8.72
2022-10-19T08:45:28.353Z,8.81
2022-10-19T08:48:24.729Z,8.94
2022-10-19T08:50:59.519Z,9.08
2022-10-19T08:53:49.953Z,9.20
2022-10-19T08:56:50.566Z,9.27
2022-10-19T09:00:13.911Z,9.40
2022-10-19T09:03:55.086Z,9.55
2022-10-19T09:06:40.499Z,9.65
2022-10-19T09:09:15.458Z,9.79
2022-10-19T09:11:55.753Z,9.88
2022-10-19T09:14:38.519Z,9.97
2022-10-19T09:17:17.019Z,10.08
2022-10-19T09:19:49.654Z,10.15
2022-10-19T09:22:32.483Z,10.20
2022-10-19T09:25:22.125Z,10.25
2022-10-19T09:28:14.980Z,10.45
2022-10-19T09:30:52.388Z,10.47
2022-10-19T09:33:39.402Z,10.59
2022-10-19T09:36:49.313Z,10.72
2022-10-19T09:39:49.270Z,10.85
2022-10-19T09:46:27.464Z,11.03
2022-10-19T09:49:27.932Z,11.29
2022-10-19T09:56:46.749Z,11.47
2022-10-19T09:59:46.401Z,11.58
2022-10-19T10:03:11.749Z,11.77
2022-10-19T10:06:12.496Z,11.79
2022-10-19T10:09:53.710Z,11.86
2022-10-19T10:17:13.718Z,12.09
2022-10-19T10:20:43.141Z,12.23
2022-10-19T10:26:37.925Z,12.25
2022-10-19T10:29:43.491Z,12.44
2022-10-19T10:32:44.470Z,12.38
2022-10-19T10:35:58.223Z,12.54
2022-10-19T10:38:52.649Z,12.63
2022-10-19T10:41:50.782Z,12.72
2022-10-19T10:45:08.037Z,12.69
2022-10-19T10:51:12.431Z,12.84
2022-10-19T10:54:39.904Z,12.75
2022-10-19T10:57:33.885Z,12.74
2022-10-19T11:00:24.263Z,12.82
2022-10-19T11:11:08.692Z,13.02
2022-10-19T11:17:25.463Z,13.32
2022-10-19T11:20:40.275Z,13.37
2022-10-19T11:28:14.985Z,13.39
2022-10-19T11:32:20.581Z,13.39
2022-10-19T11:39:16.605Z,13.53
2022-10-19T11:42:29.825Z,13.54
2022-10-19T11:45:32.060Z,13.53
2022-10-19T11:48:35.286Z,13.61
2022-10-19T11:51:35.670Z,13.60
2022-10-19T11:54:14.959Z,13.74
2022-10-19T11:57:07.412Z,13.67
2022-10-19T12:00:15.021Z,13.54
2022-10-19T12:03:03.857Z,13.54
2022-10-19T12:06:19.894Z,13.65
2022-10-19T12:09:45.836Z,13.68
2022-10-19T12:12:31.513Z,13.67
2022-10-19T12:15:28.551Z,13.63
2022-10-19T12:18:20.415Z,13.68
2022-10-19T12:20:59.488Z,13.70
2022-10-19T12:23:37.519Z,13.72
2022-10-19T12:26:16.238Z,13.65
2022-10-19T12:29:00.659Z,13.69
2022-10-19T12:31:35.798Z,13.71
2022-10-19T12:34:59.197Z,13.80
2022-10-19T12:37:44.657Z,13.92
2022-10-19T12:40:35.278Z,13.87
2022-10-19T12:43:38.825Z,13.95
2022-10-19T12:46:38.513Z,13.87
2022-10-19T12:49:28.990Z,13.99
2022-10-19T12:52:02.505Z,14.01
2022-10-19T12:54:39.250Z,14.00
2022-10-19T12:57:28.760Z,14.12
2022-10-19T13:00:22.917Z,14.19
2022-10-19T13:03:05.359Z,14.13
2022-10-19T13:05:39.326Z,14.13
2022-10-19T13:08:29.882Z,14.16
2022-10-19T13:11:15.164Z,14.12
2022-10-19T13:14:06.505Z,14.09
2022-10-19T13:16:56.081Z,13.98
2022-10-19T13:19:29.582Z,13.99
2022-10-19T13:22:02.167Z,13.98
2022-10-19T13:24:37.511Z,13.91
2022-10-19T13:27:28.199Z,13.85
2022-10-19T13:30:01.028Z,13.89
2022-10-19T13:32:43.652Z,13.81
2022-10-19T13:35:35.085Z,13.80
2022-10-19T13:38:46.268Z,13.79
2022-10-19T13:41:47.601Z,13.67
2022-10-19T13:44:26.807Z,13.62
2022-10-19T13:47:24.900Z,13.60
2022-10-19T13:50:45.033Z,13.59
2022-10-19T13:53:35.846Z,13.47
2022-10-19T13:59:46.543Z,13.48
2022-10-19T14:02:59.996Z,13.56
2022-10-19T14:06:35.486Z,13.62
2022-10-19T14:09:47.085Z,13.63
2022-10-19T14:12:27.667Z,13.77
2022-10-19T14:15:00.402Z,13.80
2022-10-19T14:17:40.742Z,13.85
2022-10-19T14:20:27.259Z,13.94
2022-10-19T14:23:25.237Z,14.07
2022-10-19T14:26:23.624Z,14.09
2022-10-19T14:29:00.530Z,14.23
2022-10-19T14:31:36.719Z,14.29
2022-10-19T14:34:09.692Z,14.40
2022-10-19T14:36:52.345Z,14.53
2022-10-19T14:39:33.503Z,14.48
2022-10-19T14:42:10.802Z,14.52
2022-10-19T14:44:44.507Z,14.47
2022-10-19T14:47:24.030Z,14.60
2022-10-19T14:49:57.376Z,14.49
2022-10-19T14:52:39.698Z,14.51
2022-10-19T14:55:19.125Z,14.39
2022-10-19T14:57:53.771Z,14.36
2022-10-19T15:03:12.548Z,14.36
2022-10-19T15:05:54.331Z,14.36
2022-10-19T15:08:42.529Z,14.23
2022-10-19T15:11:43.786Z,14.19
2022-10-19T15:14:26.597Z,13.98
2022-10-19T15:17:05.917Z,13.91
2022-10-19T15:19:38.358Z,13.84
2022-10-19T15:22:20.161Z,13.72
2022-10-19T15:25:07.814Z,13.66
2022-10-19T15:27:47.595Z,13.47
2022-10-19T15:30:32.526Z,13.47
2022-10-19T15:33:04.943Z,13.43
2022-10-19T15:35:40.875Z,13.34
2022-10-19T15:38:27.310Z,13.19
2022-10-19T15:41:03.265Z,13.18
2022-10-19T15:43:42.935Z,13.02
2022-10-19T15:46:33.037Z,12.90
2022-10-19T15:49:40.858Z,12.87
2022-10-19T15:52:34.360Z,12.83
2022-10-19T15:55:07.043Z,12.70
2022-10-19T15:57:40.239Z,12.64
2022-10-19T16:00:17.343Z,12.59
2022-10-19T16:02:49.955Z,12.55
2022-10-19T16:05:22.819Z,12.49
2022-10-19T16:07:55.717Z,12.41
2022-10-19T16:10:29.050Z,12.38
2022-10-19T16:13:01.610Z,12.22
2022-10-19T16:15:34.254Z,12.27
2022-10-19T16:18:06.761Z,12.26
2022-10-19T16:20:40.309Z,12.26
2022-10-19T16:23:14.292Z,12.16
2022-10-19T16:25:47.225Z,12.06
2022-10-19T16:28:20.197Z,12.03
2022-10-19T16:30:55.219Z,11.95
2022-10-19T16:33:27.834Z,11.92
2022-10-19T16:36:05.697Z,11.86
2022-10-19T16:38:38.363Z,11.80
2022-10-19T16:41:11.493Z,11.65
2022-10-19T16:43:44.092Z,11.64
2022-10-19T16:46:22.741Z,11.57
2022-10-19T16:48:55.598Z,11.50
2022-10-19T16:51:40.465Z,11.50
2022-10-19T16:54:15.513Z,11.52
2022-10-19T16:56:48.799Z,11.47
2022-10-19T16:59:21.691Z,11.44
2022-10-19T17:01:54.374Z,11.38
2022-10-19T17:04:27.113Z,11.31
2022-10-19T17:06:59.712Z,11.26
2022-10-19T17:09:49.764Z,11.25
2022-10-19T17:12:26.199Z,11.12
2022-10-19T17:15:18.446Z,11.10
2022-10-19T17:17:51.336Z,11.06
2022-10-19T17:20:23.911Z,11.01
2022-10-19T17:22:56.506Z,11.02
2022-10-19T17:25:29.172Z,10.96
2022-10-19T17:28:01.761Z,10.95
2022-10-19T17:30:43.727Z,10.92
2022-10-19T17:33:19.937Z,10.89
2022-10-19T17:35:53.995Z,10.86
2022-10-19T17:38:26.882Z,10.91
2022-10-19T17:41:19.717Z,10.90
2022-10-19T17:43:53.185Z,10.90
2022-10-19T17:46:34.803Z,10.87
2022-10-19T17:49:07.368Z,10.84
2022-10-19T17:51:40.630Z,10.88
2022-10-19T17:54:15.012Z,10.88
2022-10-19T17:56:47.613Z,10.88
2022-10-19T17:59:30.098Z,10.90
2022-10-19T18:02:08.990Z,10.89
2022-10-19T18:04:41.563Z,10.80
2022-10-19T18:07:14.046Z,10.73
2022-10-19T18:09:46.610Z,10.70
2022-10-19T18:12:19.196Z,10.67
2022-10-19T18:14:51.721Z,10.70
2022-10-19T18:17:26.997Z,10.66
2022-10-19T18:20:00.490Z,10.65
2022-10-19T18:22:33.120Z,10.57
2022-10-19T18:25:06.233Z,10.58
2022-10-19T18:27:38.832Z,10.53
2022-10-19T18:30:11.699Z,10.51
2022-10-19T18:32:44.239Z,10.45
2022-10-19T18:35:17.040Z,10.41
2022-10-19T18:37:49.753Z,10.33
2022-10-19T18:40:22.298Z,10.36
2022-10-19T18:42:55.114Z,10.37
2022-10-19T18:45:27.714Z,10.27
2022-10-19T18:48:00.252Z,10.34
2022-10-19T18:50:32.869Z,10.30
2022-10-19T18:53:05.484Z,10.23
2022-10-19T18:55:38.240Z,10.24
2022-10-19T18:58:12.688Z,10.23
2022-10-19T19:00:45.874Z,10.23
2022-10-19T19:03:20.519Z,10.14
2022-10-19T19:05:53.234Z,10.12
2022-10-19T19:08:25.898Z,10.15
2022-10-19T19:11:16.758Z,10.04
2022-10-19T19:13:56.586Z,10.11
2022-10-19T19:16:34.175Z,10.05
2022-10-19T19:19:08.395Z,10.05
2022-10-19T19:21:44.326Z,10.02
2022-10-19T19:24:21.821Z,9.99
2022-10-19T19:26:58.026Z,9.96
2022-10-19T19:29:30.722Z,9.93
2022-10-19T19:32:04.475Z,9.91
2022-10-19T19:34:37.314Z,9.86
2022-10-19T19:37:11.101Z,9.83
2022-10-19T19:39:44.623Z,9.77
2022-10-19T19:42:18.251Z,9.84
2022-10-19T19:44:50.777Z,9.75
2022-10-19T19:47:23.786Z,9.77
2022-10-19T19:49:56.394Z,9.76
2022-10-19T19:52:28.946Z,9.74
2022-10-19T19:57:39.579Z,9.63
2022-10-19T20:00:12.884Z,9.61
2022-10-19T20:02:45.515Z,9.55
2022-10-19T20:05:18.217Z,9.56
2022-10-19T20:07:52.070Z,9.54
2022-10-19T20:10:25.152Z,9.55
2022-10-19T20:12:57.816Z,9.58
2022-10-19T20:15:30.358Z,9.56
2022-10-19T20:18:02.841Z,9.53
2022-10-19T20:20:35.554Z,9.49
2022-10-19T20:23:08.064Z,9.44
2022-10-19T20:25:40.597Z,9.42
2022-10-19T20:28:13.110Z,9.47
2022-10-19T20:30:45.576Z,9.47
2022-10-19T20:33:18.115Z,9.41
2022-10-19T20:35:50.782Z,9.41
2022-10-19T20:38:23.505Z,9.36
2022-10-19T20:40:56.041Z,9.38
2022-10-19T20:43:28.623Z,9.35
2022-10-19T20:46:14.907Z,9.31
2022-10-19T20:48:47.843Z,9.27
2022-10-19T20:51:29.098Z,9.32
2022-10-19T20:54:08.489Z,9.31
2022-10-19T20:56:42.192Z,9.28
2022-10-19T20:59:18.985Z,9.27
2022-10-19T21:01:54.754Z,9.18
2022-10-19T21:04:27.530Z,9.18
2022-10-19T21:07:00.983Z,9.17
2022-10-19T21:09:33.672Z,9.23
2022-10-19T21:12:06.290Z,9.22
2022-10-19T21:14:38.872Z,9.21
2022-10-19T21:17:11.506Z,9.18
2022-10-19T21:19:44.085Z,9.18
2022-10-19T21:22:16.858Z,9.19
2022-10-19T21:24:49.357Z,9.19
2022-10-19T21:27:21.907Z,9.19
2022-10-19T21:29:54.455Z,9.20
2022-10-19T21:32:26.983Z,9.15
2022-10-19T21:34:59.549Z,9.15
2022-10-19T21:37:32.126Z,9.16
2022-10-19T21:40:05.313Z,9.18
2022-10-19T21:42:38.090Z,9.16
2022-10-19T21:45:29.288Z,9.18
2022-10-19T21:48:03.096Z,9.13
2022-10-19T21:50:35.622Z,9.11
2022-10-19T21:53:08.383Z,9.08
2022-10-19T21:55:40.979Z,9.07
2022-10-19T21:58:13.965Z,9.03
2022-10-19T22:00:46.488Z,9.03
2022-10-19T22:03:19.071Z,9.07
2022-10-19T22:05:52.282Z,9.09
2022-10-19T22:08:25.952Z,9.10
2022-10-19T22:10:58.846Z,9.07
2022-10-19T22:13:31.346Z,9.09
2022-10-19T22:16:07.687Z,9.04
2022-10-19T22:18:41.150Z,9.04
2022-10-19T22:21:21.753Z,9.06
2022-10-19T22:24:07.199Z,9.05
2022-10-19T22:26:44.756Z,9.06
2022-10-19T22:29:17.582Z,9.10
2022-10-19T22:31:50.097Z,9.06
2022-10-19T22:34:22.774Z,9.04
2022-10-19T22:36:55.356Z,8.96
2022-10-19T22:39:29.964Z,9.02
2022-10-19T22:42:04.379Z,8.98
2022-10-19T22:44:36.950Z,9.02
2022-10-19T22:47:09.472Z,8.99
2022-10-19T22:49:41.974Z,8.99
2022-10-19T22:52:16.356Z,9.04
2022-10-19T22:54:50.525Z,8.95
2022-10-19T22:57:23.960Z,9.02
2022-10-19T22:59:56.542Z,8.99
2022-10-19T23:02:29.754Z,9.04
2022-10-19T23:05:02.308Z,9.04
2022-10-19T23:07:35.018Z,9.00
2022-10-19T23:10:08.262Z,8.98
2022-10-19T23:12:42.064Z,9.00
2022-10-19T23:15:14.674Z,8.97
2022-10-19T23:17:48.212Z,8.99
2022-10-19T23:20:20.724Z,8.99
2022-10-19T23:22:53.421Z,8.99
2022-10-19T23:25:26.081Z,8.98
2022-10-19T23:27:58.672Z,8.95
2022-10-19T23:30:31.217Z,8.93
2022-10-19T23:33:03.858Z,8.91
2022-10-19T23:35:36.398Z,8.91
2022-10-19T23:38:08.933Z,8.89
2022-10-19T23:40:44.632Z,8.88
2022-10-19T23:43:17.146Z,8.86
2022-10-19T23:45:49.714Z,8.84
2022-10-19T23:48:22.420Z,8.84
2022-10-19T23:51:16.989Z,8.84
2022-10-19T23:53:52.109Z,8.83
2022-10-19T23:56:28.534Z,8.82
2022-10-19T23:59:01.062Z,8.78
